ADDS METAR Data INFO
IDs: Format: Raw Decoded Include TAF

Data at: 2049 UTC 15 Aug 2018

KEFD 151950Z 15008KT 8SM SCT020 SCT250 32/24 A3000

TAF KEFD 152000Z 1520/1702 16012KT 9999 SCT050 QNH2999INS
  TEMPO 1520/1524 VRB10G15KT 8000 -TSRA BKN020CB
  BECMG 1604/1605 18009KT 9999 SCT010 QNH3001INS
  BECMG 1606/1607 18006KT 9999 BKN010 QNH2998INS
  BECMG 1611/1612 VRB04KT 9999 BKN008 QNH3002INS
  BECMG 1614/1615 18009KT 9999 SCT030 QNH3008INS
  TEMPO 1616/1622 16015G25KT 6000 -TSRA BKN030CB TX34/1520Z TN25/1612Z